sensor_id;sensor_type;location;lat;lon;timestamp;P1;durP1;ratioP1;P2;durP2;ratioP2
25913;SDS011;13718;50.922;5.346;2023-05-10T00:01:46;33.28;;;12.52;;
25913;SDS011;13718;50.922;5.346;2023-05-10T00:04:11;28.67;;;12.25;;
25913;SDS011;13718;50.922;5.346;2023-05-10T00:06:37;26.48;;;11.32;;
25913;SDS011;13718;50.922;5.346;2023-05-10T00:09:02;31.98;;;12.38;;
25913;SDS011;13718;50.922;5.346;2023-05-10T00:11:28;33.40;;;12.10;;
25913;SDS011;13718;50.922;5.346;2023-05-10T00:13:54;32.90;;;12.70;;
25913;SDS011;13718;50.922;5.346;2023-05-10T00:16:20;32.25;;;12.73;;
25913;SDS011;13718;50.922;5.346;2023-05-10T00:18:45;33.78;;;12.85;;
25913;SDS011;13718;50.922;5.346;2023-05-10T00:21:11;34.53;;;13.45;;
25913;SDS011;13718;50.922;5.346;2023-05-10T00:23:37;30.30;;;12.27;;
25913;SDS011;13718;50.922;5.346;2023-05-10T00:26:03;36.75;;;13.77;;
25913;SDS011;13718;50.922;5.346;2023-05-10T00:28:28;32.00;;;13.57;;
25913;SDS011;13718;50.922;5.346;2023-05-10T00:30:54;35.78;;;13.63;;
25913;SDS011;13718;50.922;5.346;2023-05-10T00:33:20;35.65;;;12.70;;
25913;SDS011;13718;50.922;5.346;2023-05-10T00:35:46;32.03;;;13.23;;
25913;SDS011;13718;50.922;5.346;2023-05-10T00:38:11;33.58;;;13.52;;
25913;SDS011;13718;50.922;5.346;2023-05-10T00:40:37;35.55;;;12.13;;
25913;SDS011;13718;50.922;5.346;2023-05-10T00:43:04;32.70;;;13.05;;
25913;SDS011;13718;50.922;5.346;2023-05-10T00:45:30;35.03;;;13.40;;
25913;SDS011;13718;50.922;5.346;2023-05-10T00:47:57;32.83;;;12.85;;
25913;SDS011;13718;50.922;5.346;2023-05-10T00:50:24;32.65;;;13.93;;
25913;SDS011;13718;50.922;5.346;2023-05-10T00:52:51;37.17;;;13.20;;
25913;SDS011;13718;50.922;5.346;2023-05-10T00:55:17;35.50;;;14.20;;
25913;SDS011;13718;50.922;5.346;2023-05-10T00:57:43;40.97;;;13.35;;
25913;SDS011;13718;50.922;5.346;2023-05-10T01:00:09;40.20;;;13.73;;
25913;SDS011;13718;50.922;5.346;2023-05-10T01:02:36;37.25;;;13.20;;
25913;SDS011;13718;50.922;5.346;2023-05-10T01:05:02;34.78;;;13.68;;
25913;SDS011;13718;50.922;5.346;2023-05-10T01:07:28;36.70;;;13.52;;
25913;SDS011;13718;50.922;5.346;2023-05-10T01:09:54;29.80;;;13.02;;
25913;SDS011;13718;50.922;5.346;2023-05-10T01:12:20;30.15;;;12.85;;
25913;SDS011;13718;50.922;5.346;2023-05-10T01:14:46;35.10;;;13.52;;
25913;SDS011;13718;50.922;5.346;2023-05-10T01:17:12;37.17;;;13.70;;
25913;SDS011;13718;50.922;5.346;2023-05-10T01:19:38;36.13;;;12.60;;
25913;SDS011;13718;50.922;5.346;2023-05-10T01:33:09;36.47;;;13.30;;
25913;SDS011;13718;50.922;5.346;2023-05-10T01:38:14;40.60;;;13.60;;
25913;SDS011;13718;50.922;5.346;2023-05-10T01:43:55;37.22;;;14.32;;
25913;SDS011;13718;50.922;5.346;2023-05-10T01:46:28;38.38;;;13.80;;
25913;SDS011;13718;50.922;5.346;2023-05-10T01:49:02;38.10;;;13.55;;
25913;SDS011;13718;50.922;5.346;2023-05-10T01:51:38;39.13;;;13.80;;
25913;SDS011;13718;50.922;5.346;2023-05-10T01:54:09;36.13;;;13.55;;
25913;SDS011;13718;50.922;5.346;2023-05-10T01:56:38;41.75;;;14.52;;
25913;SDS011;13718;50.922;5.346;2023-05-10T01:59:08;39.83;;;15.00;;
25913;SDS011;13718;50.922;5.346;2023-05-10T02:01:37;37.30;;;14.65;;
25913;SDS011;13718;50.922;5.346;2023-05-10T02:04:04;35.83;;;14.73;;
25913;SDS011;13718;50.922;5.346;2023-05-10T02:06:34;43.45;;;15.07;;
25913;SDS011;13718;50.922;5.346;2023-05-10T02:09:02;42.22;;;14.15;;
25913;SDS011;13718;50.922;5.346;2023-05-10T02:11:29;45.70;;;15.02;;
25913;SDS011;13718;50.922;5.346;2023-05-10T02:13:56;41.25;;;14.82;;
25913;SDS011;13718;50.922;5.346;2023-05-10T02:16:23;46.90;;;15.40;;
25913;SDS011;13718;50.922;5.346;2023-05-10T02:18:51;40.08;;;14.27;;
25913;SDS011;13718;50.922;5.346;2023-05-10T02:21:17;45.33;;;15.40;;
25913;SDS011;13718;50.922;5.346;2023-05-10T02:23:45;42.88;;;14.90;;
25913;SDS011;13718;50.922;5.346;2023-05-10T02:26:13;39.75;;;14.80;;
25913;SDS011;13718;50.922;5.346;2023-05-10T02:28:40;49.00;;;14.98;;
25913;SDS011;13718;50.922;5.346;2023-05-10T02:31:07;42.92;;;15.93;;
25913;SDS011;13718;50.922;5.346;2023-05-10T02:33:35;41.20;;;15.15;;
25913;SDS011;13718;50.922;5.346;2023-05-10T02:36:05;41.85;;;15.25;;
25913;SDS011;13718;50.922;5.346;2023-05-10T02:38:33;40.15;;;15.75;;
25913;SDS011;13718;50.922;5.346;2023-05-10T02:41:01;43.70;;;14.63;;
25913;SDS011;13718;50.922;5.346;2023-05-10T02:43:29;51.67;;;15.40;;
25913;SDS011;13718;50.922;5.346;2023-05-10T02:45:57;43.75;;;15.70;;
25913;SDS011;13718;50.922;5.346;2023-05-10T02:48:22;49.70;;;14.95;;
25913;SDS011;13718;50.922;5.346;2023-05-10T02:50:48;47.65;;;14.52;;
25913;SDS011;13718;50.922;5.346;2023-05-10T02:53:22;44.63;;;14.50;;
25913;SDS011;13718;50.922;5.346;2023-05-10T02:55:52;45.05;;;15.80;;
25913;SDS011;13718;50.922;5.346;2023-05-10T02:58:24;46.10;;;15.82;;
25913;SDS011;13718;50.922;5.346;2023-05-10T03:00:50;45.45;;;15.50;;
25913;SDS011;13718;50.922;5.346;2023-05-10T03:03:16;39.92;;;14.45;;
25913;SDS011;13718;50.922;5.346;2023-05-10T03:05:41;49.40;;;14.90;;
25913;SDS011;13718;50.922;5.346;2023-05-10T03:08:07;36.10;;;14.38;;
25913;SDS011;13718;50.922;5.346;2023-05-10T03:10:33;44.30;;;14.57;;
25913;SDS011;13718;50.922;5.346;2023-05-10T03:13:13;40.33;;;15.35;;
25913;SDS011;13718;50.922;5.346;2023-05-10T03:15:57;44.90;;;15.57;;
25913;SDS011;13718;50.922;5.346;2023-05-10T03:18:43;37.83;;;14.55;;
25913;SDS011;13718;50.922;5.346;2023-05-10T03:21:15;43.40;;;15.38;;
25913;SDS011;13718;50.922;5.346;2023-05-10T03:23:44;46.25;;;16.00;;
25913;SDS011;13718;50.922;5.346;2023-05-10T03:26:17;43.60;;;14.63;;
25913;SDS011;13718;50.922;5.346;2023-05-10T03:28:47;45.83;;;15.35;;
25913;SDS011;13718;50.922;5.346;2023-05-10T03:31:13;46.78;;;16.67;;
25913;SDS011;13718;50.922;5.346;2023-05-10T03:33:48;49.80;;;15.80;;
25913;SDS011;13718;50.922;5.346;2023-05-10T03:36:15;49.47;;;15.85;;
25913;SDS011;13718;50.922;5.346;2023-05-10T03:38:41;55.22;;;16.30;;
25913;SDS011;13718;50.922;5.346;2023-05-10T03:41:06;51.22;;;16.23;;
25913;SDS011;13718;50.922;5.346;2023-05-10T03:43:32;40.53;;;15.15;;
25913;SDS011;13718;50.922;5.346;2023-05-10T03:45:58;44.63;;;16.00;;
25913;SDS011;13718;50.922;5.346;2023-05-10T03:48:26;51.95;;;15.93;;
25913;SDS011;13718;50.922;5.346;2023-05-10T03:50:51;54.25;;;16.77;;
25913;SDS011;13718;50.922;5.346;2023-05-10T03:53:17;50.55;;;16.90;;
25913;SDS011;13718;50.922;5.346;2023-05-10T03:55:46;55.63;;;16.80;;
25913;SDS011;13718;50.922;5.346;2023-05-10T03:58:11;50.42;;;17.20;;
25913;SDS011;13718;50.922;5.346;2023-05-10T04:00:37;50.40;;;17.38;;
25913;SDS011;13718;50.922;5.346;2023-05-10T04:03:08;49.67;;;16.83;;
25913;SDS011;13718;50.922;5.346;2023-05-10T04:05:34;56.20;;;17.77;;
25913;SDS011;13718;50.922;5.346;2023-05-10T04:08:00;50.90;;;16.73;;
25913;SDS011;13718;50.922;5.346;2023-05-10T04:10:26;53.60;;;16.95;;
25913;SDS011;13718;50.922;5.346;2023-05-10T04:12:52;48.50;;;16.95;;
25913;SDS011;13718;50.922;5.346;2023-05-10T04:15:18;56.42;;;16.92;;
25913;SDS011;13718;50.922;5.346;2023-05-10T04:17:43;51.05;;;16.83;;
25913;SDS011;13718;50.922;5.346;2023-05-10T04:20:09;50.80;;;16.98;;
25913;SDS011;13718;50.922;5.346;2023-05-10T04:22:35;47.38;;;16.65;;
25913;SDS011;13718;50.922;5.346;2023-05-10T04:25:01;48.70;;;16.10;;
25913;SDS011;13718;50.922;5.346;2023-05-10T04:27:27;41.90;;;16.02;;
25913;SDS011;13718;50.922;5.346;2023-05-10T04:29:52;49.53;;;16.38;;
25913;SDS011;13718;50.922;5.346;2023-05-10T04:32:18;50.63;;;16.30;;
25913;SDS011;13718;50.922;5.346;2023-05-10T04:34:45;56.30;;;16.90;;
25913;SDS011;13718;50.922;5.346;2023-05-10T04:37:11;53.13;;;16.77;;
25913;SDS011;13718;50.922;5.346;2023-05-10T04:39:36;57.95;;;17.55;;
25913;SDS011;13718;50.922;5.346;2023-05-10T04:42:02;56.33;;;17.48;;
25913;SDS011;13718;50.922;5.346;2023-05-10T04:44:30;54.63;;;17.40;;
25913;SDS011;13718;50.922;5.346;2023-05-10T04:46:59;60.95;;;18.60;;
25913;SDS011;13718;50.922;5.346;2023-05-10T04:49:25;55.22;;;18.48;;
25913;SDS011;13718;50.922;5.346;2023-05-10T04:51:50;56.80;;;17.77;;
25913;SDS011;13718;50.922;5.346;2023-05-10T04:54:16;63.80;;;18.60;;
25913;SDS011;13718;50.922;5.346;2023-05-10T04:56:42;55.83;;;18.13;;
25913;SDS011;13718;50.922;5.346;2023-05-10T04:59:07;74.88;;;18.70;;
25913;SDS011;13718;50.922;5.346;2023-05-10T05:01:33;56.30;;;16.88;;
25913;SDS011;13718;50.922;5.346;2023-05-10T05:03:58;49.55;;;16.25;;
25913;SDS011;13718;50.922;5.346;2023-05-10T05:06:24;56.60;;;18.20;;
25913;SDS011;13718;50.922;5.346;2023-05-10T05:08:50;55.42;;;17.13;;
25913;SDS011;13718;50.922;5.346;2023-05-10T05:11:16;59.53;;;17.98;;
25913;SDS011;13718;50.922;5.346;2023-05-10T05:13:42;58.78;;;18.85;;
25913;SDS011;13718;50.922;5.346;2023-05-10T05:16:08;60.72;;;17.83;;
25913;SDS011;13718;50.922;5.346;2023-05-10T05:18:35;58.85;;;17.33;;
25913;SDS011;13718;50.922;5.346;2023-05-10T05:21:00;63.75;;;18.83;;
25913;SDS011;13718;50.922;5.346;2023-05-10T05:23:28;66.65;;;19.65;;
25913;SDS011;13718;50.922;5.346;2023-05-10T05:25:55;63.40;;;18.77;;
25913;SDS011;13718;50.922;5.346;2023-05-10T05:28:21;67.60;;;20.08;;
25913;SDS011;13718;50.922;5.346;2023-05-10T05:30:46;60.70;;;19.05;;
25913;SDS011;13718;50.922;5.346;2023-05-10T05:33:15;66.40;;;19.83;;
25913;SDS011;13718;50.922;5.346;2023-05-10T05:35:41;66.43;;;19.15;;
25913;SDS011;13718;50.922;5.346;2023-05-10T05:38:09;76.53;;;21.30;;
25913;SDS011;13718;50.922;5.346;2023-05-10T05:40:35;68.72;;;20.13;;
25913;SDS011;13718;50.922;5.346;2023-05-10T05:43:00;70.57;;;21.33;;
25913;SDS011;13718;50.922;5.346;2023-05-10T05:45:26;73.03;;;21.13;;
25913;SDS011;13718;50.922;5.346;2023-05-10T05:47:52;82.72;;;22.65;;
25913;SDS011;13718;50.922;5.346;2023-05-10T05:50:17;82.70;;;23.15;;
25913;SDS011;13718;50.922;5.346;2023-05-10T05:52:43;80.60;;;23.05;;
25913;SDS011;13718;50.922;5.346;2023-05-10T05:55:09;76.70;;;22.55;;
25913;SDS011;13718;50.922;5.346;2023-05-10T05:57:34;83.75;;;23.98;;
25913;SDS011;13718;50.922;5.346;2023-05-10T06:00:00;94.45;;;25.40;;
25913;SDS011;13718;50.922;5.346;2023-05-10T06:02:25;84.95;;;23.27;;
25913;SDS011;13718;50.922;5.346;2023-05-10T06:04:51;86.38;;;23.60;;
25913;SDS011;13718;50.922;5.346;2023-05-10T06:07:17;75.65;;;23.23;;
25913;SDS011;13718;50.922;5.346;2023-05-10T06:09:42;82.03;;;22.95;;
25913;SDS011;13718;50.922;5.346;2023-05-10T06:12:08;79.72;;;22.98;;
25913;SDS011;13718;50.922;5.346;2023-05-10T06:14:33;83.15;;;22.92;;
25913;SDS011;13718;50.922;5.346;2023-05-10T06:16:59;78.40;;;22.48;;
25913;SDS011;13718;50.922;5.346;2023-05-10T06:19:25;82.85;;;22.50;;
25913;SDS011;13718;50.922;5.346;2023-05-10T06:21:51;87.47;;;22.67;;
25913;SDS011;13718;50.922;5.346;2023-05-10T06:24:17;93.47;;;24.70;;
25913;SDS011;13718;50.922;5.346;2023-05-10T06:26:42;81.70;;;23.10;;
25913;SDS011;13718;50.922;5.346;2023-05-10T06:29:08;82.80;;;23.25;;
25913;SDS011;13718;50.922;5.346;2023-05-10T06:31:33;77.53;;;23.33;;
25913;SDS011;13718;50.922;5.346;2023-05-10T06:33:59;85.85;;;24.50;;
25913;SDS011;13718;50.922;5.346;2023-05-10T06:36:25;80.03;;;24.08;;
25913;SDS011;13718;50.922;5.346;2023-05-10T06:38:51;91.00;;;23.58;;
25913;SDS011;13718;50.922;5.346;2023-05-10T06:41:17;86.65;;;24.02;;
25913;SDS011;13718;50.922;5.346;2023-05-10T06:43:42;85.35;;;24.27;;
25913;SDS011;13718;50.922;5.346;2023-05-10T06:46:08;90.65;;;23.95;;
25913;SDS011;13718;50.922;5.346;2023-05-10T06:48:34;96.82;;;24.55;;
25913;SDS011;13718;50.922;5.346;2023-05-10T06:50:59;93.82;;;24.08;;
25913;SDS011;13718;50.922;5.346;2023-05-10T06:53:25;91.30;;;23.75;;
25913;SDS011;13718;50.922;5.346;2023-05-10T06:55:51;86.50;;;23.95;;
25913;SDS011;13718;50.922;5.346;2023-05-10T06:58:17;82.72;;;23.83;;
25913;SDS011;13718;50.922;5.346;2023-05-10T07:00:42;94.75;;;24.30;;
25913;SDS011;13718;50.922;5.346;2023-05-10T07:03:10;93.28;;;23.90;;
25913;SDS011;13718;50.922;5.346;2023-05-10T07:05:35;96.22;;;24.08;;
25913;SDS011;13718;50.922;5.346;2023-05-10T07:08:01;93.25;;;24.02;;
25913;SDS011;13718;50.922;5.346;2023-05-10T07:10:27;81.28;;;24.58;;
25913;SDS011;13718;50.922;5.346;2023-05-10T07:12:52;93.93;;;25.42;;
25913;SDS011;13718;50.922;5.346;2023-05-10T07:15:18;89.60;;;24.17;;
25913;SDS011;13718;50.922;5.346;2023-05-10T07:17:44;85.60;;;24.00;;
25913;SDS011;13718;50.922;5.346;2023-05-10T07:20:10;90.32;;;24.50;;
25913;SDS011;13718;50.922;5.346;2023-05-10T07:22:36;83.28;;;24.30;;
25913;SDS011;13718;50.922;5.346;2023-05-10T07:25:02;90.97;;;24.33;;
25913;SDS011;13718;50.922;5.346;2023-05-10T07:27:27;91.55;;;24.20;;
25913;SDS011;13718;50.922;5.346;2023-05-10T07:29:53;84.53;;;23.15;;
25913;SDS011;13718;50.922;5.346;2023-05-10T07:32:19;83.70;;;23.88;;
25913;SDS011;13718;50.922;5.346;2023-05-10T07:34:47;89.85;;;25.45;;
25913;SDS011;13718;50.922;5.346;2023-05-10T07:37:13;86.35;;;23.50;;
25913;SDS011;13718;50.922;5.346;2023-05-10T07:39:38;80.55;;;23.15;;
25913;SDS011;13718;50.922;5.346;2023-05-10T07:42:04;74.90;;;23.40;;
25913;SDS011;13718;50.922;5.346;2023-05-10T07:44:30;82.53;;;23.20;;
25913;SDS011;13718;50.922;5.346;2023-05-10T07:46:56;70.38;;;22.90;;
25913;SDS011;13718;50.922;5.346;2023-05-10T07:49:22;72.05;;;21.20;;
25913;SDS011;13718;50.922;5.346;2023-05-10T07:51:52;67.93;;;21.70;;
25913;SDS011;13718;50.922;5.346;2023-05-10T07:54:17;64.65;;;21.33;;
25913;SDS011;13718;50.922;5.346;2023-05-10T07:56:43;59.67;;;20.98;;
25913;SDS011;13718;50.922;5.346;2023-05-10T07:59:14;65.82;;;21.30;;
25913;SDS011;13718;50.922;5.346;2023-05-10T08:01:41;62.83;;;20.88;;
25913;SDS011;13718;50.922;5.346;2023-05-10T08:04:07;52.38;;;17.55;;
25913;SDS011;13718;50.922;5.346;2023-05-10T08:06:33;34.10;;;13.15;;
25913;SDS011;13718;50.922;5.346;2023-05-10T08:08:59;14.27;;;5.70;;
25913;SDS011;13718;50.922;5.346;2023-05-10T08:11:25;7.72;;;3.55;;
25913;SDS011;13718;50.922;5.346;2023-05-10T08:13:52;11.43;;;3.92;;
25913;SDS011;13718;50.922;5.346;2023-05-10T08:16:18;8.45;;;3.72;;
25913;SDS011;13718;50.922;5.346;2023-05-10T08:18:45;8.18;;;3.40;;
25913;SDS011;13718;50.922;5.346;2023-05-10T08:21:12;8.45;;;3.13;;
25913;SDS011;13718;50.922;5.346;2023-05-10T08:23:38;5.45;;;2.70;;
25913;SDS011;13718;50.922;5.346;2023-05-10T08:26:04;6.57;;;3.00;;
25913;SDS011;13718;50.922;5.346;2023-05-10T08:28:30;5.93;;;2.60;;
25913;SDS011;13718;50.922;5.346;2023-05-10T08:30:56;5.40;;;2.65;;
25913;SDS011;13718;50.922;5.346;2023-05-10T08:33:21;7.93;;;2.50;;
25913;SDS011;13718;50.922;5.346;2023-05-10T08:35:47;7.88;;;3.08;;
25913;SDS011;13718;50.922;5.346;2023-05-10T08:38:13;6.88;;;2.35;;
25913;SDS011;13718;50.922;5.346;2023-05-10T08:40:42;8.48;;;2.97;;
25913;SDS011;13718;50.922;5.346;2023-05-10T08:43:09;8.25;;;3.13;;
25913;SDS011;13718;50.922;5.346;2023-05-10T08:45:37;9.20;;;3.20;;
25913;SDS011;13718;50.922;5.346;2023-05-10T08:48:05;10.43;;;3.58;;
25913;SDS011;13718;50.922;5.346;2023-05-10T08:50:32;10.25;;;3.70;;
25913;SDS011;13718;50.922;5.346;2023-05-10T08:53:04;14.65;;;3.72;;
25913;SDS011;13718;50.922;5.346;2023-05-10T08:55:34;8.85;;;3.72;;
25913;SDS011;13718;50.922;5.346;2023-05-10T08:58:01;12.63;;;3.88;;
25913;SDS011;13718;50.922;5.346;2023-05-10T09:00:28;10.57;;;4.32;;
25913;SDS011;13718;50.922;5.346;2023-05-10T09:02:54;11.65;;;4.40;;
25913;SDS011;13718;50.922;5.346;2023-05-10T09:05:20;8.93;;;4.13;;
25913;SDS011;13718;50.922;5.346;2023-05-10T09:07:46;9.82;;;4.03;;
25913;SDS011;13718;50.922;5.346;2023-05-10T09:10:11;13.32;;;4.60;;
25913;SDS011;13718;50.922;5.346;2023-05-10T09:12:40;9.48;;;3.97;;
25913;SDS011;13718;50.922;5.346;2023-05-10T09:15:06;11.35;;;4.90;;
25913;SDS011;13718;50.922;5.346;2023-05-10T09:17:34;13.02;;;4.85;;
25913;SDS011;13718;50.922;5.346;2023-05-10T09:20:00;12.48;;;4.50;;
25913;SDS011;13718;50.922;5.346;2023-05-10T09:22:27;14.60;;;4.65;;
25913;SDS011;13718;50.922;5.346;2023-05-10T09:25:15;10.88;;;4.70;;
25913;SDS011;13718;50.922;5.346;2023-05-10T09:27:44;13.65;;;5.22;;
25913;SDS011;13718;50.922;5.346;2023-05-10T09:30:11;12.32;;;5.03;;
25913;SDS011;13718;50.922;5.346;2023-05-10T09:32:58;12.73;;;5.47;;
25913;SDS011;13718;50.922;5.346;2023-05-10T09:35:26;14.98;;;5.25;;
25913;SDS011;13718;50.922;5.346;2023-05-10T09:37:54;12.48;;;5.18;;
25913;SDS011;13718;50.922;5.346;2023-05-10T09:40:21;14.15;;;5.60;;
25913;SDS011;13718;50.922;5.346;2023-05-10T09:45:32;13.20;;;5.47;;
25913;SDS011;13718;50.922;5.346;2023-05-10T09:47:59;14.80;;;5.97;;
25913;SDS011;13718;50.922;5.346;2023-05-10T09:50:27;15.30;;;5.90;;
25913;SDS011;13718;50.922;5.346;2023-05-10T09:52:58;12.95;;;5.68;;
25913;SDS011;13718;50.922;5.346;2023-05-10T09:55:38;14.48;;;6.43;;
25913;SDS011;13718;50.922;5.346;2023-05-10T09:58:05;11.65;;;6.10;;
25913;SDS011;13718;50.922;5.346;2023-05-10T10:00:41;15.80;;;7.18;;
25913;SDS011;13718;50.922;5.346;2023-05-10T10:03:15;19.75;;;8.40;;
25913;SDS011;13718;50.922;5.346;2023-05-10T10:05:45;18.35;;;7.07;;
25913;SDS011;13718;50.922;5.346;2023-05-10T10:08:12;16.10;;;7.57;;
25913;SDS011;13718;50.922;5.346;2023-05-10T10:10:38;18.55;;;7.95;;
25913;SDS011;13718;50.922;5.346;2023-05-10T10:13:09;22.75;;;8.30;;
25913;SDS011;13718;50.922;5.346;2023-05-10T10:15:34;22.40;;;9.20;;
25913;SDS011;13718;50.922;5.346;2023-05-10T10:18:00;20.55;;;8.70;;
25913;SDS011;13718;50.922;5.346;2023-05-10T10:20:27;20.50;;;8.80;;
25913;SDS011;13718;50.922;5.346;2023-05-10T10:22:53;17.83;;;8.77;;
25913;SDS011;13718;50.922;5.346;2023-05-10T10:25:19;22.52;;;8.48;;
25913;SDS011;13718;50.922;5.346;2023-05-10T10:30:39;24.25;;;10.27;;
25913;SDS011;13718;50.922;5.346;2023-05-10T10:35:49;24.05;;;9.65;;
25913;SDS011;13718;50.922;5.346;2023-05-10T10:38:17;20.60;;;8.02;;
25913;SDS011;13718;50.922;5.346;2023-05-10T10:40:42;20.60;;;9.45;;
25913;SDS011;13718;50.922;5.346;2023-05-10T10:48:49;24.92;;;9.10;;
25913;SDS011;13718;50.922;5.346;2023-05-10T10:51:16;22.02;;;9.38;;
25913;SDS011;13718;50.922;5.346;2023-05-10T10:53:42;22.95;;;8.68;;
25913;SDS011;13718;50.922;5.346;2023-05-10T10:56:09;21.33;;;8.80;;
25913;SDS011;13718;50.922;5.346;2023-05-10T10:58:37;19.25;;;7.07;;
25913;SDS011;13718;50.922;5.346;2023-05-10T11:01:18;16.20;;;7.63;;
25913;SDS011;13718;50.922;5.346;2023-05-10T11:06:31;18.92;;;7.35;;
25913;SDS011;13718;50.922;5.346;2023-05-10T11:08:58;15.25;;;7.10;;
25913;SDS011;13718;50.922;5.346;2023-05-10T11:11:34;15.90;;;6.90;;
25913;SDS011;13718;50.922;5.346;2023-05-10T11:14:07;14.65;;;7.03;;
25913;SDS011;13718;50.922;5.346;2023-05-10T11:16:42;15.55;;;6.75;;
25913;SDS011;13718;50.922;5.346;2023-05-10T11:19:09;13.77;;;6.85;;
25913;SDS011;13718;50.922;5.346;2023-05-10T11:21:47;14.60;;;6.53;;
25913;SDS011;13718;50.922;5.346;2023-05-10T11:24:14;12.60;;;6.53;;
25913;SDS011;13718;50.922;5.346;2023-05-10T11:26:44;18.40;;;6.03;;
25913;SDS011;13718;50.922;5.346;2023-05-10T11:29:12;14.98;;;6.38;;
25913;SDS011;13718;50.922;5.346;2023-05-10T11:31:42;11.75;;;5.85;;
25913;SDS011;13718;50.922;5.346;2023-05-10T11:34:12;12.32;;;6.25;;
25913;SDS011;13718;50.922;5.346;2023-05-10T11:36:52;12.48;;;5.45;;
25913;SDS011;13718;50.922;5.346;2023-05-10T11:39:19;11.65;;;5.85;;
25913;SDS011;13718;50.922;5.346;2023-05-10T11:41:49;9.20;;;5.10;;
25913;SDS011;13718;50.922;5.346;2023-05-10T11:44:15;11.05;;;5.75;;
25913;SDS011;13718;50.922;5.346;2023-05-10T11:46:41;14.50;;;5.00;;
25913;SDS011;13718;50.922;5.346;2023-05-10T11:49:06;7.95;;;4.47;;
25913;SDS011;13718;50.922;5.346;2023-05-10T11:51:33;10.90;;;4.82;;
25913;SDS011;13718;50.922;5.346;2023-05-10T11:54:02;9.70;;;4.43;;
25913;SDS011;13718;50.922;5.346;2023-05-10T11:56:32;8.63;;;4.20;;
25913;SDS011;13718;50.922;5.346;2023-05-10T11:58:58;8.30;;;4.50;;
25913;SDS011;13718;50.922;5.346;2023-05-10T12:01:27;9.15;;;4.10;;
25913;SDS011;13718;50.922;5.346;2023-05-10T12:03:55;9.10;;;4.07;;
25913;SDS011;13718;50.922;5.346;2023-05-10T12:06:26;8.90;;;4.20;;
25913;SDS011;13718;50.922;5.346;2023-05-10T12:08:53;10.20;;;4.60;;
25913;SDS011;13718;50.922;5.346;2023-05-10T12:11:19;8.00;;;4.20;;
25913;SDS011;13718;50.922;5.346;2023-05-10T12:13:46;10.05;;;4.00;;
25913;SDS011;13718;50.922;5.346;2023-05-10T12:16:13;7.68;;;3.78;;
25913;SDS011;13718;50.922;5.346;2023-05-10T12:18:40;8.90;;;4.20;;
25913;SDS011;13718;50.922;5.346;2023-05-10T12:21:07;8.48;;;3.53;;
25913;SDS011;13718;50.922;5.346;2023-05-10T12:23:35;11.43;;;4.00;;
25913;SDS011;13718;50.922;5.346;2023-05-10T12:26:01;8.30;;;3.65;;
25913;SDS011;13718;50.922;5.346;2023-05-10T12:28:31;10.30;;;3.60;;
25913;SDS011;13718;50.922;5.346;2023-05-10T12:30:58;8.15;;;3.40;;
25913;SDS011;13718;50.922;5.346;2023-05-10T12:33:24;8.13;;;3.45;;
25913;SDS011;13718;50.922;5.346;2023-05-10T12:35:53;7.07;;;3.65;;
25913;SDS011;13718;50.922;5.346;2023-05-10T12:38:35;9.40;;;3.22;;
25913;SDS011;13718;50.922;5.346;2023-05-10T12:41:06;6.63;;;3.85;;
25913;SDS011;13718;50.922;5.346;2023-05-10T12:43:34;6.43;;;3.88;;
25913;SDS011;13718;50.922;5.346;2023-05-10T12:48:32;10.00;;;4.28;;
25913;SDS011;13718;50.922;5.346;2023-05-10T12:50:59;8.55;;;4.40;;
25913;SDS011;13718;50.922;5.346;2023-05-10T12:53:25;8.35;;;4.35;;
25913;SDS011;13718;50.922;5.346;2023-05-10T12:55:51;7.35;;;4.25;;
25913;SDS011;13718;50.922;5.346;2023-05-10T12:58:16;9.05;;;3.95;;
25913;SDS011;13718;50.922;5.346;2023-05-10T13:00:42;6.38;;;3.83;;
25913;SDS011;13718;50.922;5.346;2023-05-10T13:03:08;6.90;;;3.67;;
25913;SDS011;13718;50.922;5.346;2023-05-10T13:05:35;5.75;;;3.25;;
25913;SDS011;13718;50.922;5.346;2023-05-10T13:08:00;5.65;;;3.00;;
25913;SDS011;13718;50.922;5.346;2023-05-10T13:10:27;5.22;;;2.90;;
25913;SDS011;13718;50.922;5.346;2023-05-10T13:12:56;7.60;;;3.63;;
25913;SDS011;13718;50.922;5.346;2023-05-10T13:15:23;6.05;;;3.55;;
25913;SDS011;13718;50.922;5.346;2023-05-10T13:17:49;5.72;;;2.88;;
25913;SDS011;13718;50.922;5.346;2023-05-10T13:20:15;5.18;;;2.80;;
25913;SDS011;13718;50.922;5.346;2023-05-10T13:22:41;6.18;;;3.30;;
25913;SDS011;13718;50.922;5.346;2023-05-10T13:25:08;6.45;;;2.95;;
25913;SDS011;13718;50.922;5.346;2023-05-10T13:27:34;8.88;;;3.15;;
25913;SDS011;13718;50.922;5.346;2023-05-10T13:29:59;6.10;;;3.42;;
25913;SDS011;13718;50.922;5.346;2023-05-10T13:32:25;5.95;;;3.22;;
25913;SDS011;13718;50.922;5.346;2023-05-10T13:34:51;6.03;;;3.03;;
25913;SDS011;13718;50.922;5.346;2023-05-10T13:37:17;5.97;;;3.22;;
25913;SDS011;13718;50.922;5.346;2023-05-10T13:39:43;4.38;;;2.10;;
25913;SDS011;13718;50.922;5.346;2023-05-10T13:42:09;4.43;;;2.17;;
25913;SDS011;13718;50.922;5.346;2023-05-10T13:44:34;3.95;;;2.60;;
25913;SDS011;13718;50.922;5.346;2023-05-10T13:47:01;4.65;;;2.30;;
25913;SDS011;13718;50.922;5.346;2023-05-10T13:49:26;4.35;;;2.00;;
25913;SDS011;13718;50.922;5.346;2023-05-10T13:51:52;4.85;;;2.05;;
25913;SDS011;13718;50.922;5.346;2023-05-10T13:54:17;4.15;;;1.90;;
25913;SDS011;13718;50.922;5.346;2023-05-10T13:56:47;3.78;;;1.70;;
25913;SDS011;13718;50.922;5.346;2023-05-10T13:59:13;4.13;;;2.38;;
25913;SDS011;13718;50.922;5.346;2023-05-10T14:01:39;3.22;;;2.03;;
25913;SDS011;13718;50.922;5.346;2023-05-10T14:04:06;3.03;;;1.67;;
25913;SDS011;13718;50.922;5.346;2023-05-10T14:06:35;2.92;;;1.92;;
25913;SDS011;13718;50.922;5.346;2023-05-10T14:09:01;3.90;;;2.35;;
25913;SDS011;13718;50.922;5.346;2023-05-10T14:11:27;5.03;;;2.83;;
25913;SDS011;13718;50.922;5.346;2023-05-10T14:13:53;6.47;;;2.28;;
25913;SDS011;13718;50.922;5.346;2023-05-10T14:16:18;4.40;;;2.90;;
25913;SDS011;13718;50.922;5.346;2023-05-10T14:18:45;4.80;;;2.65;;
25913;SDS011;13718;50.922;5.346;2023-05-10T14:21:11;5.50;;;2.53;;
25913;SDS011;13718;50.922;5.346;2023-05-10T14:23:36;4.95;;;2.20;;
25913;SDS011;13718;50.922;5.346;2023-05-10T14:26:02;3.97;;;2.42;;
25913;SDS011;13718;50.922;5.346;2023-05-10T14:28:28;4.70;;;2.20;;
25913;SDS011;13718;50.922;5.346;2023-05-10T14:30:53;4.45;;;2.78;;
25913;SDS011;13718;50.922;5.346;2023-05-10T14:33:19;4.35;;;1.95;;
25913;SDS011;13718;50.922;5.346;2023-05-10T14:35:45;5.43;;;2.40;;
25913;SDS011;13718;50.922;5.346;2023-05-10T14:38:12;4.97;;;2.50;;
25913;SDS011;13718;50.922;5.346;2023-05-10T14:40:38;6.32;;;2.75;;
25913;SDS011;13718;50.922;5.346;2023-05-10T14:43:04;4.28;;;2.40;;
25913;SDS011;13718;50.922;5.346;2023-05-10T14:45:30;4.03;;;2.15;;
25913;SDS011;13718;50.922;5.346;2023-05-10T14:47:56;5.63;;;2.30;;
25913;SDS011;13718;50.922;5.346;2023-05-10T14:50:22;4.85;;;2.90;;
25913;SDS011;13718;50.922;5.346;2023-05-10T14:52:48;4.63;;;2.50;;
25913;SDS011;13718;50.922;5.346;2023-05-10T14:55:14;3.78;;;2.10;;
25913;SDS011;13718;50.922;5.346;2023-05-10T14:57:40;4.00;;;2.20;;
25913;SDS011;13718;50.922;5.346;2023-05-10T15:00:06;4.05;;;2.55;;
25913;SDS011;13718;50.922;5.346;2023-05-10T15:02:32;3.50;;;2.15;;
25913;SDS011;13718;50.922;5.346;2023-05-10T15:04:58;5.65;;;2.15;;
25913;SDS011;13718;50.922;5.346;2023-05-10T15:07:23;2.97;;;1.98;;